Time;durP1;ratioP1;P1;durP2;ratioP2;P2;SDS_P1;SDS_P2;PMS_P1;PMS_P2;Temp;Humidity;BMP_temperature;BMP_pressure;BME280_temperature;BME280_humidity;BME280_pressure;Samples;Min_cycle;Max_cycle;Signal;HPM_P1;HPM_P2
2022/08/19 00:00:07;;;;;;;30.63;25.42;;;;;;;17.33;100.00;101306.81;5051092;28;20029;-72
2022/08/19 00:02:33;;;;;;;28.75;25.13;;;;;;;17.34;100.00;101305.88;5036567;28;20143;-72
2022/08/19 00:04:58;;;;;;;27.58;24.88;;;;;;;17.31;100.00;101301.59;5050823;28;20111;-72
2022/08/19 00:07:23;;;;;;;27.50;24.58;;;;;;;17.30;100.00;101302.50;5032580;28;20477;-72
2022/08/19 00:09:48;;;;;;;29.20;26.15;;;;;;;17.31;100.00;101296.31;5049393;28;20032;-72
2022/08/19 00:12:14;;;;;;;27.90;24.90;;;;;;;17.29;100.00;101299.94;5041933;28;20108;-72
2022/08/19 00:14:40;;;;;;;28.75;25.70;;;;;;;17.20;100.00;101287.16;5047046;28;20473;-72
2022/08/19 00:17:07;;;;;;;28.42;25.42;;;;;;;17.21;100.00;101289.75;5044330;28;20025;-73
2022/08/19 00:19:32;;;;;;;29.00;25.90;;;;;;;17.24;100.00;101288.75;5050765;28;20029;-72
2022/08/19 00:21:58;;;;;;;29.50;26.35;;;;;;;17.22;100.00;101295.88;5046076;28;20473;-72
2022/08/19 00:24:24;;;;;;;28.25;25.35;;;;;;;17.15;100.00;101286.53;5042054;28;20033;-72
2022/08/19 00:26:50;;;;;;;30.00;26.63;;;;;;;17.09;100.00;101291.13;5042187;28;20106;-72
2022/08/19 00:29:18;;;;;;;33.38;27.75;;;;;;;17.03;100.00;101288.75;5031183;28;20076;-72
2022/08/19 00:31:45;;;;;;;30.30;27.13;;;;;;;17.00;100.00;101294.19;5049945;28;20029;-72
2022/08/19 00:34:12;;;;;;;31.45;28.13;;;;;;;16.97;100.00;101294.31;5039342;28;20037;-72
2022/08/19 00:36:38;;;;;;;32.08;27.55;;;;;;;17.00;100.00;101286.28;5029995;28;20107;-72
2022/08/19 00:39:03;;;;;;;28.83;25.73;;;;;;;16.92;100.00;101293.63;5028089;28;20060;-72
2022/08/19 00:41:30;;;;;;;30.42;27.23;;;;;;;16.93;100.00;101300.59;5028995;28;20036;-72
2022/08/19 00:44:10;;;;;;;31.05;27.48;;;;;;;16.91;100.00;101309.53;5030817;28;20049;-72
2022/08/19 00:46:38;;;;;;;29.48;25.73;;;;;;;16.87;100.00;101303.50;5028532;28;20033;-72
2022/08/19 00:49:10;;;;;;;29.15;25.73;;;;;;;16.85;100.00;101298.31;5032964;28;20073;-72
2022/08/19 00:51:36;;;;;;;31.67;26.15;;;;;;;16.81;100.00;101303.78;5034331;28;20192;-72
2022/08/19 00:54:02;;;;;;;28.95;25.63;;;;;;;16.80;100.00;101304.69;5033619;28;20026;-72
2022/08/19 00:56:27;;;;;;;30.02;26.65;;;;;;;16.80;100.00;101309.94;5032229;28;20033;-72
2022/08/19 00:58:56;;;;;;;30.88;27.25;;;;;;;16.74;100.00;101312.78;5034472;28;20022;-72
2022/08/19 01:01:21;;;;;;;30.70;26.40;;;;;;;16.70;100.00;101298.91;5033274;28;20112;-72
2022/08/19 01:03:46;;;;;;;31.55;27.40;;;;;;;16.64;100.00;101296.53;5034621;28;20112;-72
2022/08/19 01:06:12;;;;;;;32.55;28.48;;;;;;;16.62;100.00;101293.97;5032429;28;20393;-72
2022/08/19 01:08:37;;;;;;;30.95;26.92;;;;;;;16.57;100.00;101297.72;5033169;28;20045;-73
2022/08/19 01:11:04;;;;;;;29.73;26.52;;;;;;;16.61;100.00;101307.19;5033250;28;20034;-72
2022/08/19 01:13:32;;;;;;;33.53;27.85;;;;;;;16.57;100.00;101308.22;5032955;28;20799;-72
2022/08/19 01:16:03;;;;;;;30.73;27.10;;;;;;;16.54;100.00;101306.56;5031921;28;20041;-72
2022/08/19 01:18:31;;;;;;;38.47;27.80;;;;;;;16.51;100.00;101309.38;5020510;28;20025;-72
2022/08/19 01:21:05;;;;;;;31.15;26.80;;;;;;;16.56;100.00;101307.38;5031556;28;20017;-72
2022/08/19 01:23:43;;;;;;;33.75;27.15;;;;;;;16.48;100.00;101293.69;5019609;28;20025;-72
2022/08/19 01:26:13;;;;;;;31.77;26.23;;;;;;;16.56;100.00;101298.63;5032854;28;20083;-72
2022/08/19 01:28:40;;;;;;;29.55;25.80;;;;;;;16.54;100.00;101298.69;5019295;28;20096;-72
2022/08/19 01:31:07;;;;;;;31.65;25.02;;;;;;;16.50;100.00;101307.63;5032351;28;20029;-72
2022/08/19 01:33:32;;;;;;;31.08;26.83;;;;;;;16.47;100.00;101302.50;5033227;28;20017;-72
2022/08/19 01:36:13;;;;;;;30.77;26.85;;;;;;;16.46;100.00;101306.06;5032123;28;20034;-72
2022/08/19 01:38:42;;;;;;;32.65;27.50;;;;;;;16.48;100.00;101298.06;5033347;28;20025;-72
2022/08/19 01:41:09;;;;;;;31.67;27.42;;;;;;;16.46;100.00;101295.53;5032733;28;20427;-72
2022/08/19 01:43:34;;;;;;;31.27;26.13;;;;;;;16.44;100.00;101292.09;5032066;28;20057;-72
2022/08/19 01:46:03;;;;;;;30.38;27.08;;;;;;;16.44;100.00;101297.34;5032092;28;20475;-72
2022/08/19 01:48:37;;;;;;;34.30;28.08;;;;;;;16.35;100.00;101282.81;5032444;28;20079;-72
2022/08/19 01:51:02;;;;;;;33.72;28.38;;;;;;;16.41;100.00;101299.25;5033786;28;20083;-72
2022/08/19 01:53:28;;;;;;;34.55;28.77;;;;;;;16.41;100.00;101294.00;5033123;28;20033;-73
2022/08/19 01:55:54;;;;;;;35.45;27.95;;;;;;;16.39;100.00;101300.19;5031781;28;20508;-72
2022/08/19 01:58:22;;;;;;;34.10;27.38;;;;;;;16.39;100.00;101300.19;5032912;28;20462;-72
2022/08/19 02:00:48;;;;;;;34.75;28.08;;;;;;;16.35;100.00;101298.59;5032622;28;20025;-72
2022/08/19 02:03:14;;;;;;;34.55;28.17;;;;;;;16.34;100.00;101306.53;5031716;28;20052;-72
2022/08/19 02:05:40;;;;;;;37.72;30.00;;;;;;;16.31;100.00;101302.25;5031789;28;20112;-72
2022/08/19 02:08:06;;;;;;;36.80;29.40;;;;;;;16.28;100.00;101297.09;5033348;28;20013;-72
2022/08/19 02:10:32;;;;;;;36.53;29.80;;;;;;;16.23;100.00;101304.34;5031108;28;20025;-72
2022/08/19 02:12:57;;;;;;;34.72;28.52;;;;;;;16.22;100.00;101312.28;5039017;28;20021;-72
2022/08/19 02:15:22;;;;;;;42.85;31.00;;;;;;;16.17;100.00;101317.72;5031459;28;20033;-72
2022/08/19 02:17:48;;;;;;;36.35;30.65;;;;;;;16.14;100.00;101316.06;5031958;28;20026;-72
2022/08/19 02:20:15;;;;;;;39.00;31.17;;;;;;;16.12;100.00;101331.06;5033023;28;20021;-72
2022/08/19 02:22:42;;;;;;;35.80;29.15;;;;;;;16.10;100.00;101319.75;5032140;28;20033;-72
2022/08/19 02:25:08;;;;;;;38.90;29.98;;;;;;;16.09;100.00;101325.06;5030567;28;20385;-73
2022/08/19 02:27:34;;;;;;;35.53;29.13;;;;;;;16.09;100.00;101325.06;5031745;28;20056;-72
2022/08/19 02:29:59;;;;;;;35.45;30.35;;;;;;;16.05;100.00;101323.47;5032893;28;20045;-72
2022/08/19 02:32:24;;;;;;;35.83;29.70;;;;;;;16.02;100.00;101332.34;5030634;28;20366;-72
2022/08/19 02:34:50;;;;;;;38.28;28.98;;;;;;;16.01;100.00;101335.03;5032570;28;20469;-72
2022/08/19 02:39:59;;;;;;;;;;;;;;;16.01;100.00;101333.25;5032880;28;20103;-72
2022/08/19 02:42:25;;;;;;;36.03;29.50;;;;;;;16.01;100.00;101330.63;5031182;28;20320;-72
2022/08/19 02:44:51;;;;;;;38.00;30.05;;;;;;;15.95;100.00;101332.63;5031592;28;20077;-72
2022/08/19 02:47:18;;;;;;;38.55;30.42;;;;;;;15.94;100.00;101338.81;5030667;28;20029;-72
2022/08/19 02:49:43;;;;;;;37.53;30.02;;;;;;;15.88;100.00;101329.38;5032594;28;20029;-72
2022/08/19 02:52:09;;;;;;;38.13;30.05;;;;;;;15.87;100.00;101339.03;5030662;28;20033;-72
2022/08/19 02:54:34;;;;;;;36.10;29.98;;;;;;;15.82;100.00;101342.75;5031943;28;20022;-72
2022/08/19 02:56:59;;;;;;;38.25;30.13;;;;;;;15.88;100.00;101356.50;5031291;28;20109;-72
2022/08/19 02:59:25;;;;;;;35.17;29.15;;;;;;;15.87;100.00;101340.81;5031180;28;20025;-72
2022/08/19 03:01:51;;;;;;;38.00;30.00;;;;;;;15.86;100.00;101344.38;5030425;28;20021;-72
2022/08/19 03:04:16;;;;;;;38.05;31.02;;;;;;;15.83;100.00;101337.44;5031296;28;20044;-73
2022/08/19 03:06:44;;;;;;;37.70;30.65;;;;;;;15.82;100.00;101335.72;5030716;28;20033;-72
2022/08/19 03:09:10;;;;;;;36.70;28.98;;;;;;;15.85;100.00;101338.22;5031973;28;20119;-72
2022/08/19 03:11:36;;;;;;;40.85;32.20;;;;;;;15.82;100.00;101330.44;5029711;28;20038;-72
2022/08/19 03:14:03;;;;;;;40.83;30.77;;;;;;;15.80;100.00;101328.81;5028728;28;20037;-72
2022/08/19 03:16:31;;;;;;;51.35;31.65;;;;;;;15.76;100.00;101337.72;5030720;28;20158;-72
2022/08/19 03:19:00;;;;;;;40.63;32.35;;;;;;;15.75;100.00;101336.84;5032130;28;20022;-72
2022/08/19 03:21:29;;;;;;;42.47;33.20;;;;;;;15.71;100.00;101340.50;5030541;28;20053;-72
2022/08/19 03:23:59;;;;;;;42.63;33.33;;;;;;;15.70;100.00;101340.59;5030447;28;20044;-72
2022/08/19 03:26:24;;;;;;;42.17;33.15;;;;;;;15.70;100.00;101337.97;5029783;28;20052;-72
2022/08/19 03:28:50;;;;;;;41.47;32.60;;;;;;;15.61;100.00;101324.19;5031366;28;20466;-72
2022/08/19 03:31:18;;;;;;;45.28;32.88;;;;;;;15.68;100.00;101335.38;5031447;28;20132;-72
2022/08/19 03:33:45;;;;;;;38.78;32.30;;;;;;;15.67;100.00;101338.91;5030914;28;20500;-72
2022/08/19 03:36:15;;;;;;;44.25;33.90;;;;;;;15.63;100.00;101335.53;5030125;28;20068;-72
2022/08/19 03:38:46;;;;;;;43.38;34.63;;;;;;;15.61;100.00;101339.13;5031744;28;20025;-72
2022/08/19 03:41:15;;;;;;;46.00;36.53;;;;;;;15.58;100.00;101336.59;5030702;28;20897;-72
2022/08/19 03:43:41;;;;;;;46.75;35.65;;;;;;;15.56;100.00;101326.13;5030710;28;20060;-72
2022/08/19 03:46:11;;;;;;;47.33;36.30;;;;;;;15.53;100.00;101315.75;5030288;28;20025;-72
2022/08/19 03:48:39;;;;;;;44.63;35.92;;;;;;;15.50;100.00;101334.25;5029572;28;20112;-72
2022/08/19 03:51:05;;;;;;;41.63;35.00;;;;;;;15.46;100.00;101328.22;5032136;28;20044;-72
2022/08/19 03:53:32;;;;;;;43.17;34.95;;;;;;;15.47;100.00;101321.22;5036974;28;20045;-72
2022/08/19 03:55:59;;;;;;;46.08;35.28;;;;;;;15.43;100.00;101323.09;5029122;28;20031;-72
2022/08/19 03:58:28;;;;;;;51.05;37.00;;;;;;;15.43;100.00;101325.75;5030982;28;20104;-72
2022/08/19 04:00:53;;;;;;;48.05;37.67;;;;;;;15.44;100.00;101324.81;5030711;28;20029;-72
2022/08/19 04:03:19;;;;;;;49.05;38.70;;;;;;;15.41;100.00;101324.06;5030186;28;20120;-72
2022/08/19 04:05:46;;;;;;;45.60;36.25;;;;;;;15.40;100.00;101327.59;5029684;28;20071;-72
2022/08/19 04:08:11;;;;;;;45.05;36.00;;;;;;;15.38;100.00;101326.81;5031624;28;20030;-72
2022/08/19 04:10:37;;;;;;;47.35;38.00;;;;;;;15.36;100.00;101321.59;5029523;28;20370;-72
2022/08/19 04:13:05;;;;;;;48.75;38.30;;;;;;;15.30;100.00;101318.31;5030664;28;20539;-72
2022/08/19 04:15:33;;;;;;;49.30;38.65;;;;;;;15.32;100.00;101324.38;5029031;28;20025;-72
2022/08/19 04:17:59;;;;;;;51.70;39.05;;;;;;;15.28;100.00;101318.38;5044362;28;20489;-72
2022/08/19 04:20:24;;;;;;;50.38;39.60;;;;;;;15.25;100.00;101315.88;5029616;28;20030;-72
2022/08/19 04:22:49;;;;;;;52.70;40.80;;;;;;;15.23;100.00;101321.16;5031661;28;20025;-72
2022/08/19 04:25:15;;;;;;;52.28;39.63;;;;;;;15.21;100.00;101317.75;5033320;28;20037;-72
2022/08/19 04:27:43;;;;;;;52.53;38.58;;;;;;;15.26;100.00;101324.59;5035092;28;20029;-72
2022/08/19 04:30:08;;;;;;;49.38;38.08;;;;;;;15.26;100.00;101322.81;5034413;28;20065;-73
2022/08/19 04:32:35;;;;;;;55.50;41.40;;;;;;;15.24;100.00;101316.78;5032961;28;20545;-72
2022/08/19 04:35:00;;;;;;;55.97;40.47;;;;;;;15.25;100.00;101317.66;5034312;28;20032;-72
2022/08/19 04:37:27;;;;;;;56.17;40.53;;;;;;;15.27;100.00;101316.69;5033016;28;20144;-72
2022/08/19 04:42:39;;;;;;;;;;;;;;;15.31;100.00;101317.44;5033697;28;20167;-74
2022/08/19 04:45:10;;;;;;;58.55;39.92;;;;;;;15.29;100.00;101319.25;5033022;28;20000;-72
2022/08/19 04:47:39;;;;;;;58.30;40.60;;;;;;;15.27;100.00;101316.69;5033228;28;20060;-72
2022/08/19 04:50:05;;;;;;;56.95;40.65;;;;;;;15.27;100.00;101323.69;5034943;28;20029;-72
2022/08/19 04:52:31;;;;;;;58.20;40.53;;;;;;;15.23;100.00;101317.69;5032485;28;20029;-72
2022/08/19 04:54:57;;;;;;;61.13;41.00;;;;;;;15.23;100.00;101323.78;5034723;28;20029;-72
2022/08/19 04:57:22;;;;;;;62.00;42.78;;;;;;;15.27;100.00;101326.31;5032533;28;20034;-72
2022/08/19 04:59:48;;;;;;;64.43;43.75;;;;;;;15.29;100.00;101335.00;5033895;28;20034;-72
2022/08/19 05:02:13;;;;;;;64.20;44.17;;;;;;;15.27;100.00;101334.19;5033220;28;20036;-72
2022/08/19 05:04:39;;;;;;;65.05;43.53;;;;;;;15.27;100.00;101342.94;5034338;28;20117;-72
2022/08/19 05:07:06;;;;;;;66.15;43.33;;;;;;;15.27;100.00;101344.69;5033161;28;20116;-72
2022/08/19 05:09:31;;;;;;;63.15;42.47;;;;;;;15.26;100.00;101343.84;5032849;28;20045;-72
2022/08/19 05:11:56;;;;;;;64.22;42.85;;;;;;;15.23;100.00;101347.44;5034388;28;20056;-72
2022/08/19 05:14:22;;;;;;;71.65;47.38;;;;;;;15.23;100.00;101342.16;5033343;28;20027;-72
2022/08/19 05:16:48;;;;;;;70.10;45.70;;;;;;;15.31;100.00;101354.22;5032373;28;20037;-72
2022/08/19 05:24:43;;;;;;;77.25;47.45;;;;;;;15.44;100.00;101366.00;5034118;28;20039;-72
2022/08/19 05:27:08;;;;;;;79.47;48.63;;;;;;;15.48;100.00;101364.97;5032737;28;20029;-72
2022/08/19 05:29:34;;;;;;;77.85;49.13;;;;;;;15.58;100.00;101373.38;5033838;28;20123;-72
2022/08/19 05:32:00;;;;;;;79.82;48.58;;;;;;;15.65;100.00;101369.63;5034200;28;20068;-72
2022/08/19 05:34:26;;;;;;;81.22;49.95;;;;;;;15.68;100.00;101374.78;5032017;28;20030;-72
2022/08/19 05:36:56;;;;;;;87.40;52.97;;;;;;;15.73;100.00;101393.03;5032536;28;20029;-72
2022/08/19 05:39:24;;;;;;;85.50;50.95;;;;;;;15.78;100.00;101394.56;5032267;28;20109;-72
2022/08/19 05:41:56;;;;;;;89.97;53.20;;;;;;;15.93;100.00;101394.94;5032211;28;20033;-72
2022/08/19 05:44:26;;;;;;;84.87;52.13;;;;;;;16.03;100.00;101391.91;5032905;28;20054;-72
2022/08/19 05:46:53;;;;;;;87.03;52.30;;;;;;;16.10;100.00;101392.53;5031630;28;20288;-72
2022/08/19 05:49:20;;;;;;;81.57;51.03;;;;;;;16.09;100.00;101389.06;5032396;28;20024;-72
2022/08/19 05:51:46;;;;;;;85.75;53.15;;;;;;;16.08;100.00;101386.47;5033629;28;20477;-72
2022/08/19 05:54:13;;;;;;;86.55;51.55;;;;;;;16.11;100.00;101397.72;5032303;28;20063;-72
2022/08/19 05:56:38;;;;;;;79.43;49.65;;;;;;;16.15;100.00;101401.09;5030989;28;20052;-72
2022/08/19 05:59:08;;;;;;;81.93;50.42;;;;;;;16.14;100.00;101383.59;5033458;28;20021;-72
2022/08/19 06:01:35;;;;;;;81.70;49.92;;;;;;;16.19;100.00;101378.19;5031417;28;20874;-72
2022/08/19 06:04:01;;;;;;;81.18;49.30;;;;;;;16.20;100.00;101377.25;5032817;28;20083;-73
2022/08/19 06:06:26;;;;;;;82.57;50.15;;;;;;;16.24;100.00;101374.44;5032409;28;20042;-72
2022/08/19 06:08:51;;;;;;;79.40;48.70;;;;;;;16.27;100.00;101373.47;5031753;28;20196;-72
2022/08/19 06:11:32;;;;;;;75.50;47.38;;;;;;;16.26;100.00;101366.50;5032160;28;20021;-72
2022/08/19 06:14:02;;;;;;;74.95;45.42;;;;;;;16.36;100.00;101360.81;5033138;28;20576;-72
2022/08/19 06:16:28;;;;;;;73.57;43.90;;;;;;;16.41;100.00;101362.41;5028409;28;20549;-72
2022/08/19 06:18:54;;;;;;;74.88;45.92;;;;;;;16.44;100.00;101365.78;5031870;28;20037;-72
2022/08/19 06:21:22;;;;;;;70.13;44.47;;;;;;;16.48;100.00;101370.03;5032138;28;20147;-72
2022/08/19 06:23:48;;;;;;;67.60;43.05;;;;;;;16.51;100.00;101362.00;5031853;28;20075;-72
2022/08/19 06:26:16;;;;;;;76.50;45.17;;;;;;;16.57;100.00;101366.13;5032976;28;20397;-72
2022/08/19 06:28:44;;;;;;;70.10;42.60;;;;;;;16.62;100.00;101364.19;5032076;28;20052;-72
2022/08/19 06:31:10;;;;;;;72.05;44.00;;;;;;;16.67;100.00;101364.00;5030164;28;20022;-72
2022/08/19 06:33:37;;;;;;;72.15;44.20;;;;;;;16.74;100.00;101363.72;5034155;28;20028;-72
2022/08/19 06:36:02;;;;;;;67.43;41.72;;;;;;;16.79;100.00;101360.91;5032083;28;20029;-72
2022/08/19 06:38:27;;;;;;;71.97;41.92;;;;;;;16.87;100.00;101358.78;5016792;28;20454;-73
2022/08/19 06:41:04;;;;;;;68.13;41.63;;;;;;;16.94;100.00;101355.00;5032825;28;20066;-72
2022/08/19 06:43:29;;;;;;;65.97;40.05;;;;;;;16.95;100.00;101351.44;5030714;28;20057;-72
2022/08/19 06:45:54;;;;;;;65.22;40.75;;;;;;;16.99;100.00;101353.03;5031742;28;20137;-72
2022/08/19 06:48:19;;;;;;;61.40;38.40;;;;;;;17.10;100.00;101365.72;5030886;28;20029;-71
2022/08/19 06:50:45;;;;;;;65.13;39.25;;;;;;;17.17;100.00;101369.84;5032613;28;20022;-72
2022/08/19 06:53:10;;;;;;;63.40;38.58;;;;;;;17.23;100.00;101366.94;5031873;28;20033;-72
2022/08/19 06:55:36;;;;;;;62.15;36.42;;;;;;;17.30;100.00;101367.53;5030142;28;20363;-72
2022/08/19 06:58:03;;;;;;;57.10;35.15;;;;;;;17.37;100.00;101368.13;5031456;28;20440;-73
2022/08/19 07:00:28;;;;;;;61.65;36.63;;;;;;;17.40;100.00;101363.59;5031109;28;20045;-72
2022/08/19 07:02:54;;;;;;;55.25;35.53;;;;;;;17.46;100.00;101358.03;5030342;28;20489;-72
2022/08/19 07:05:19;;;;;;;60.08;34.78;;;;;;;17.53;100.00;101370.03;5035782;28;20029;-72
2022/08/19 07:07:44;;;;;;;57.63;34.58;;;;;;;17.57;100.00;101357.56;5033131;28;20500;-72
2022/08/19 07:10:09;;;;;;;53.70;34.15;;;;;;;17.69;100.00;101358.78;5033760;28;20028;-72
2022/08/19 07:12:35;;;;;;;51.67;33.60;;;;;;;17.77;100.00;101364.59;5040111;28;20104;-72
2022/08/19 07:15:00;;;;;;;55.67;33.00;;;;;;;17.85;100.00;101369.53;5039369;28;20025;-73
2022/08/19 07:17:27;;;;;;;57.35;32.40;;;;;;;17.93;100.00;101356.84;5035962;28;20099;-72
2022/08/19 07:19:52;;;;;;;52.75;33.33;;;;;;;17.99;100.00;101361.84;5033189;28;20143;-72
2022/08/19 07:22:20;;;;;;;56.78;31.60;;;;;;;18.02;100.00;101373.13;5031408;28;20084;-73
2022/08/19 07:24:46;;;;;;;53.00;31.25;;;;;;;18.06;100.00;101367.69;5031917;28;20110;-73
2022/08/19 07:27:13;;;;;;;53.90;31.10;;;;;;;18.13;100.00;101377.88;5031150;28;20072;-72
2022/08/19 07:29:38;;;;;;;52.58;32.10;;;;;;;18.23;100.00;101383.59;5045159;28;20026;-72
2022/08/19 07:32:04;;;;;;;43.08;28.77;;;;;;;18.40;100.00;101388.06;5038990;28;20032;-72
2022/08/19 07:34:33;;;;;;;44.10;29.40;;;;;;;18.68;100.00;101384.97;5050556;28;20028;-73
2022/08/19 07:36:59;;;;;;;46.53;29.90;;;;;;;18.91;100.00;101383.88;5044972;28;20465;-72
2022/08/19 07:39:27;;;;;;;44.00;28.60;;;;;;;19.00;100.00;101382.53;5030807;28;20025;-71
2022/08/19 07:41:55;;;;;;;45.20;29.70;;;;;;;19.24;99.03;101383.97;5032913;28;20523;-71
2022/08/19 07:44:20;;;;;;;49.40;33.42;;;;;;;19.41;96.64;101388.38;5039142;28;20065;-71
2022/08/19 07:46:49;;;;;;;46.72;31.23;;;;;;;19.48;98.70;101395.06;5030638;28;20025;-71
2022/08/19 07:49:19;;;;;;;43.88;33.10;;;;;;;19.68;94.44;101395.84;5033029;28;20429;-72
2022/08/19 07:51:58;;;;;;;50.72;34.05;;;;;;;19.76;94.36;101402.44;5029380;28;20108;-74
2022/08/19 07:54:25;;;;;;;53.45;34.97;;;;;;;19.73;95.15;101415.81;5028670;28;20075;-72
2022/08/19 07:56:50;;;;;;;47.67;34.13;;;;;;;19.92;95.06;101413.06;5031451;28;20049;-73
2022/08/19 07:59:17;;;;;;;50.30;37.53;;;;;;;20.08;93.15;101415.75;5031192;28;20560;-73
2022/08/19 08:01:43;;;;;;;48.47;36.67;;;;;;;20.07;92.75;101414.84;5031209;28;20040;-72
2022/08/19 08:09:39;;;;;;;51.70;38.92;;;;;;;20.25;90.66;101418.31;5008598;28;20132;-72
2022/08/19 08:12:15;;;;;;;49.40;38.80;;;;;;;20.28;91.87;101420.78;5009675;28;20029;-72
2022/08/19 08:14:53;;;;;;;50.05;37.20;;;;;;;20.38;91.98;101425.59;5012185;28;20030;-72
2022/08/19 08:17:21;;;;;;;53.40;38.97;;;;;;;20.45;88.89;101429.59;5011506;28;20127;-72
2022/08/19 08:19:49;;;;;;;48.10;37.22;;;;;;;20.39;90.07;101424.63;5012794;28;20030;-72
2022/08/19 08:25:07;;;;;;;52.45;40.38;;;;;;;20.26;89.65;101435.06;5012843;28;20081;-72
2022/08/19 08:27:36;;;;;;;51.78;39.97;;;;;;;20.38;91.04;101438.84;5012494;28;20046;-72
2022/08/19 08:30:04;;;;;;;50.05;39.42;;;;;;;20.33;89.15;101442.56;5012024;28;20026;-72
2022/08/19 08:32:30;;;;;;;55.05;40.15;;;;;;;20.35;89.99;101446.00;5012374;28;20034;-72
2022/08/19 08:34:55;;;;;;;52.67;40.15;;;;;;;20.36;89.21;101446.84;5012874;28;20072;-72
2022/08/19 08:37:22;;;;;;;56.30;41.10;;;;;;;20.55;88.89;101442.28;5011557;28;20486;-72
2022/08/19 08:39:47;;;;;;;52.00;39.20;;;;;;;20.90;87.16;101433.28;5012850;28;20097;-72
2022/08/19 08:42:33;;;;;;;47.95;37.83;;;;;;;21.19;87.54;101437.75;5012675;28;20109;-72
2022/08/19 08:45:12;;;;;;;45.65;33.35;;;;;;;21.31;84.64;101449.41;5031139;28;20497;-72
2022/08/19 08:47:39;;;;;;;44.08;32.05;;;;;;;21.62;83.67;101445.84;5032037;28;20025;-72
2022/08/19 08:50:12;;;;;;;44.88;31.23;;;;;;;21.66;82.14;101457.13;5032371;28;20034;-72
2022/08/19 08:52:44;;;;;;;51.67;32.43;;;;;;;21.44;81.72;101453.09;5031278;28;20040;-72
2022/08/19 08:55:16;;;;;;;48.85;32.08;;;;;;;21.15;82.34;101457.41;5032097;28;20397;-72
2022/08/19 08:57:54;;;;;;;44.40;31.10;;;;;;;20.91;85.23;101448.25;5031694;28;20025;-72
2022/08/19 09:00:33;;;;;;;44.42;31.88;;;;;;;20.85;85.45;101443.28;5031940;28;20744;-72
2022/08/19 09:03:01;;;;;;;42.83;32.85;;;;;;;21.03;85.06;101443.09;5032159;28;20040;-72
2022/08/19 09:05:42;;;;;;;43.67;32.35;;;;;;;21.21;85.09;101440.31;5031158;28;20064;-72
2022/08/19 09:08:29;;;;;;;50.00;35.80;;;;;;;21.12;84.70;101433.72;5032059;28;20382;-72
2022/08/19 09:10:57;;;;;;;52.92;36.40;;;;;;;21.27;83.72;101443.44;5034067;28;20508;-72
2022/08/19 09:13:41;;;;;;;49.78;36.13;;;;;;;21.43;83.45;101442.56;5034597;28;20022;-72
2022/08/19 09:16:12;;;;;;;50.78;36.45;;;;;;;21.67;82.11;101433.13;5035692;28;20025;-72
2022/08/19 09:18:44;;;;;;;44.33;35.38;;;;;;;21.85;79.97;101446.25;5034614;28;20049;-72
2022/08/19 09:21:10;;;;;;;49.45;37.45;;;;;;;21.94;79.44;101443.88;5035483;28;20087;-72
2022/08/19 09:23:36;;;;;;;45.05;35.70;;;;;;;21.97;79.01;101451.66;5035077;28;20397;-72
2022/08/19 09:26:08;;;;;;;45.67;34.88;;;;;;;21.90;80.49;101449.47;5034643;28;20029;-72
2022/08/19 09:28:33;;;;;;;42.60;33.65;;;;;;;21.72;80.44;101440.84;5034967;28;20025;-72
2022/08/19 09:30:58;;;;;;;43.38;33.53;;;;;;;21.53;79.56;101461.44;5035570;28;20017;-72
2022/08/19 09:33:23;;;;;;;45.67;33.97;;;;;;;21.36;80.11;101460.66;5034364;28;20469;-72
2022/08/19 09:35:49;;;;;;;53.95;36.25;;;;;;;21.07;81.08;101459.66;5035370;28;20269;-72
2022/08/19 09:38:14;;;;;;;50.38;34.75;;;;;;;20.92;83.54;101465.84;5035079;28;20108;-72
2022/08/19 09:40:40;;;;;;;47.38;35.45;;;;;;;20.77;82.87;101464.94;5034081;28;20038;-72
2022/08/19 09:43:06;;;;;;;48.38;35.60;;;;;;;20.84;84.16;101458.34;5034935;28;20049;-72
2022/08/19 09:45:31;;;;;;;47.35;34.65;;;;;;;21.01;84.23;101460.00;5034679;28;20029;-72
2022/08/19 09:47:56;;;;;;;49.30;35.15;;;;;;;21.40;84.06;101461.31;5034235;28;20056;-72
2022/08/19 09:50:23;;;;;;;41.85;32.85;;;;;;;21.80;81.12;101458.94;5034741;28;20029;-72
2022/08/19 09:52:48;;;;;;;42.63;34.00;;;;;;;21.94;80.27;101464.25;5035118;28;20032;-72
2022/08/19 09:55:15;;;;;;;39.08;31.17;;;;;;;21.98;80.29;101460.47;5034179;28;20033;-72
2022/08/19 09:57:41;;;;;;;41.50;31.50;;;;;;;22.04;79.04;101461.88;5034764;28;20100;-72
2022/08/19 10:00:08;;;;;;;42.72;32.67;;;;;;;22.00;80.98;101457.72;5034654;28;20112;-72
2022/08/19 10:02:34;;;;;;;43.60;32.13;;;;;;;21.89;80.27;101469.00;5033505;28;20044;-72
2022/08/19 10:07:43;;;;;;;42.67;30.95;;;;;;;21.91;78.51;101467.09;5034326;28;20063;-72
2022/08/19 10:10:09;;;;;;;40.38;30.67;;;;;;;21.72;79.29;101468.22;5034486;28;20061;-72
2022/08/19 10:12:35;;;;;;;41.92;31.30;;;;;;;21.62;79.09;101468.88;5034401;28;20037;-72
2022/08/19 10:15:01;;;;;;;42.88;31.52;;;;;;;21.56;80.59;101470.09;5033815;28;20025;-72
2022/08/19 10:17:27;;;;;;;46.15;32.53;;;;;;;21.50;79.74;101473.09;5034224;28;20091;-72
2022/08/19 10:19:52;;;;;;;43.97;31.90;;;;;;;21.65;79.09;101464.22;5034365;28;20116;-72
2022/08/19 10:22:18;;;;;;;45.83;31.55;;;;;;;21.98;78.46;101463.13;5033024;28;20017;-72
2022/08/19 10:24:45;;;;;;;46.58;32.22;;;;;;;22.25;77.82;101454.41;5034256;28;20025;-72
2022/08/19 10:27:12;;;;;;;41.92;31.92;;;;;;;22.46;75.51;101455.69;5034411;28;20029;-72
2022/08/19 10:29:37;;;;;;;42.38;29.88;;;;;;;22.78;74.78;101458.94;5033353;28;20049;-72
2022/08/19 10:32:07;;;;;;;40.75;28.83;;;;;;;23.05;75.10;101460.78;5034225;28;20057;-72
2022/08/19 10:34:33;;;;;;;41.00;28.48;;;;;;;23.12;74.77;101452.31;5033992;28;20025;-72
2022/08/19 10:37:00;;;;;;;36.78;28.33;;;;;;;23.04;73.17;101462.59;5033247;28;20032;-72
2022/08/19 10:39:28;;;;;;;36.53;27.20;;;;;;;22.99;73.95;101454.09;5033647;28;20029;-72
2022/08/19 10:41:53;;;;;;;40.60;28.05;;;;;;;22.98;72.03;101462.16;5034183;28;20025;-72
2022/08/19 10:44:20;;;;;;;36.63;27.35;;;;;;;23.06;74.26;101458.03;5032608;28;20489;-72
2022/08/19 10:46:46;;;;;;;38.03;27.08;;;;;;;23.27;72.39;101449.56;5034005;28;20096;-72
2022/08/19 10:49:12;;;;;;;38.45;26.38;;;;;;;23.47;71.88;101449.06;5034138;28;20060;-72
2022/08/19 10:56:50;;;;;;;35.63;26.02;;;;;;;24.03;70.84;101443.47;5034091;28;20099;-72
2022/08/19 10:57:09;;;;;;;36.35;26.70;;;;;;;24.21;69.35;101438.66;5032822;28;20100;-72
2022/08/19 10:59:35;;;;;;;37.28;26.23;;;;;;;24.34;67.89;101441.28;5033652;28;20560;-72
2022/08/19 11:02:02;;;;;;;37.00;27.45;;;;;;;24.44;66.56;101443.19;5033841;28;20076;-72
2022/08/19 11:04:27;;;;;;;35.58;28.10;;;;;;;24.68;66.03;101437.88;5032686;28;20029;-72
2022/08/19 11:06:52;;;;;;;43.05;30.92;;;;;;;24.70;64.40;101440.44;5033387;28;20091;-72
2022/08/19 11:09:20;;;;;;;42.15;29.70;;;;;;;24.52;64.88;101439.97;5033394;28;20036;-72
2022/08/19 11:11:47;;;;;;;40.00;30.88;;;;;;;24.49;65.66;101441.06;5032679;28;20112;-72
2022/08/19 11:14:15;;;;;;;39.42;30.02;;;;;;;24.55;64.79;101444.22;5033213;28;20524;-72
2022/08/19 11:16:42;;;;;;;41.20;31.02;;;;;;;24.59;64.32;101440.38;5033267;28;20480;-72
2022/08/19 11:19:09;;;;;;;41.90;30.30;;;;;;;24.58;66.10;101444.84;5032584;28;20151;-72
2022/08/19 11:21:37;;;;;;;45.35;31.30;;;;;;;24.51;64.90;101447.13;5033149;28;20477;-72
2022/08/19 11:24:06;;;;;;;43.05;31.42;;;;;;;24.69;64.07;101444.09;5033111;28;20108;-72
2022/08/19 11:26:32;;;;;;;42.08;30.20;;;;;;;25.02;65.73;101442.56;5032120;28;20029;-72
2022/08/19 11:28:59;;;;;;;40.08;29.92;;;;;;;25.36;63.30;101440.88;5033199;28;20052;-72